Time;durP1;ratioP1;P1;durP2;ratioP2;P2;SDS_P1;SDS_P2;PMS_P1;PMS_P2;Temp;Humidity;BMP_temperature;BMP_pressure;BME280_temperature;BME280_humidity;BME280_pressure;Samples;Min_cycle;Max_cycle;Signal;HPM_P1;HPM_P2
2022/12/28 00:00:06;;;;;;;;;;;15.70;47.70;;;;;;5118187;27;19919;-72
2022/12/28 00:02:32;;;;;;;;;;;15.70;47.80;;;;;;5117595;27;19920;-64
2022/12/28 00:04:57;;;;;;;;;;;16.00;47.90;;;;;;5117490;27;19923;-64
2022/12/28 00:07:23;;;;;;;;;;;16.40;47.20;;;;;;5136826;27;19930;-73
2022/12/28 00:09:48;;;;;;;;;;;16.70;46.50;;;;;;5118081;27;19919;-72
2022/12/28 00:12:14;;;;;;;;;;;17.20;45.80;;;;;;5118107;27;19927;-64
2022/12/28 00:14:39;;;;;;;;;;;17.80;44.90;;;;;;5118195;27;20051;-71
2022/12/28 00:17:05;;;;;;;;;;;18.30;43.70;;;;;;5136340;27;19926;-64
2022/12/28 00:19:30;;;;;;;;;;;19.00;42.70;;;;;;5136256;27;19927;-72
2022/12/28 00:21:56;;;;;;;;;;;19.70;41.60;;;;;;5118209;27;20644;-64
2022/12/28 00:24:22;;;;;;;;;;;20.40;40.20;;;;;;5136194;27;20014;-64
2022/12/28 00:26:48;;;;;;;;;;;21.20;39.10;;;;;;5117678;27;19919;-64
2022/12/28 00:29:14;;;;;;;;;;;21.80;38.00;;;;;;5118150;27;19949;-64
2022/12/28 00:31:39;;;;;;;;;;;22.40;37.00;;;;;;5136011;27;19919;-65
2022/12/28 00:34:05;;;;;;;;;;;22.90;36.20;;;;;;5117932;27;19919;-64
2022/12/28 00:36:31;;;;;;;;;;;23.40;35.50;;;;;;5135865;27;19919;-72
2022/12/28 00:38:57;;;;;;;;;;;23.80;34.90;;;;;;5135963;27;19926;-64
2022/12/28 00:41:22;;;;;;;;;;;24.10;34.40;;;;;;5117721;27;19919;-72
2022/12/28 00:43:48;;;;;;;;;;;24.40;34.10;;;;;;5117472;27;19923;-65
2022/12/28 00:46:13;;;;;;;;;;;24.50;33.80;;;;;;5135785;27;19966;-72
2022/12/28 00:48:39;;;;;;;;;;;24.60;33.60;;;;;;5117280;27;20402;-64
2022/12/28 00:51:06;;;;;;;;;;;24.60;33.60;;;;;;5135627;27;19919;-64
2022/12/28 00:53:32;;;;;;;;;;;24.50;33.70;;;;;;5117636;27;19919;-72
2022/12/28 00:56:05;;;;;;;;;;;24.50;33.80;;;;;;5117128;27;20383;-65
2022/12/28 00:58:31;;;;;;;;;;;24.30;33.90;;;;;;5135573;27;19937;-72
2022/12/28 01:00:57;;;;;;;;;;;24.10;34.20;;;;;;5117037;27;19930;-64
2022/12/28 01:03:22;;;;;;;;;;;23.90;34.30;;;;;;5116961;27;19919;-64
2022/12/28 01:05:48;;;;;;;;;;;23.80;34.60;;;;;;5116520;27;19923;-65
2022/12/28 01:08:13;;;;;;;;;;;23.60;34.70;;;;;;5135617;27;20018;-64
2022/12/28 01:10:39;;;;;;;;;;;23.40;35.10;;;;;;5116968;27;19998;-64
2022/12/28 01:13:04;;;;;;;;;;;23.20;35.20;;;;;;5117111;27;19923;-71
2022/12/28 01:15:30;;;;;;;;;;;23.00;35.60;;;;;;5135263;27;20417;-72
2022/12/28 01:17:55;;;;;;;;;;;22.80;36.00;;;;;;5116974;27;19923;-64
2022/12/28 01:20:21;;;;;;;;;;;22.50;36.10;;;;;;5117040;27;20324;-64
2022/12/28 01:22:46;;;;;;;;;;;22.30;36.40;;;;;;5116920;27;20314;-64
2022/12/28 01:25:12;;;;;;;;;;;22.00;36.80;;;;;;5135156;27;20383;-64
2022/12/28 01:27:38;;;;;;;;;;;21.80;37.10;;;;;;5135022;27;19919;-64
2022/12/28 01:30:04;;;;;;;;;;;21.50;37.40;;;;;;5116615;27;19969;-64
2022/12/28 01:32:29;;;;;;;;;;;21.30;37.70;;;;;;5134807;27;19920;-64
2022/12/28 01:34:55;;;;;;;;;;;21.10;38.00;;;;;;5116743;27;20018;-71
2022/12/28 01:37:20;;;;;;;;;;;20.90;38.30;;;;;;5116201;27;20487;-64
2022/12/28 01:39:46;;;;;;;;;;;20.80;38.60;;;;;;5134751;27;19923;-64
2022/12/28 01:42:15;;;;;;;;;;;20.60;38.80;;;;;;5134833;27;20295;-72
2022/12/28 01:44:42;;;;;;;;;;;20.50;39.00;;;;;;5134736;27;19923;-64
2022/12/28 01:47:11;;;;;;;;;;;20.40;39.30;;;;;;5134596;27;19919;-64
2022/12/28 01:49:56;;;;;;;;;;;20.30;39.50;;;;;;5116484;27;19985;-65
2022/12/28 01:57:53;;;;;;;;;;;20.10;39.90;;;;;;5110230;27;20379;-64
2022/12/28 02:00:19;;;;;;;;;;;20.10;40.00;;;;;;5108932;28;19920;-64
2022/12/28 02:02:47;;;;;;;;;;;20.00;40.10;;;;;;5110147;28;20014;-64
2022/12/28 02:05:13;;;;;;;;;;;20.00;40.20;;;;;;5109283;28;19920;-64
2022/12/28 02:07:45;;;;;;;;;;;19.90;40.20;;;;;;5108850;28;19973;-64
2022/12/28 02:10:11;;;;;;;;;;;19.80;40.20;;;;;;5108913;28;19920;-64
2022/12/28 02:12:37;;;;;;;;;;;19.70;40.40;;;;;;5108753;28;20298;-72
2022/12/28 02:15:03;;;;;;;;;;;19.60;40.50;;;;;;5108582;28;19920;-63
2022/12/28 02:17:29;;;;;;;;;;;19.60;40.60;;;;;;5109677;28;20023;-65
2022/12/28 02:19:55;;;;;;;;;;;19.40;40.70;;;;;;5108365;28;19924;-64
2022/12/28 02:28:01;;;;;;;;;;;19.20;41.20;;;;;;5127418;27;1866882;-64
2022/12/28 02:30:28;;;;;;;;;;;19.00;41.40;;;;;;5193105;27;20293;-64
2022/12/28 02:33:13;;;;;;;;;;;18.90;41.60;;;;;;5174582;27;19926;-63
2022/12/28 02:38:30;;;;;;;;;;;18.60;42.00;;;;;;5129201;27;1870415;-72
2022/12/28 02:40:58;;;;;;;;;;;18.50;42.40;;;;;;5174310;27;19925;-64
2022/12/28 02:43:24;;;;;;;;;;;18.30;42.50;;;;;;5174435;27;19915;-64
2022/12/28 02:51:43;;;;;;;;;;;18.00;43.10;;;;;;5173779;27;20339;-70
2022/12/28 02:57:24;;;;;;;;;;;17.80;43.70;;;;;;5089542;28;20301;-64
2022/12/28 03:02:54;;;;;;;;;;;17.60;44.20;;;;;;5090004;28;19936;-72
2022/12/28 03:08:18;;;;;;;;;;;17.40;44.60;;;;;;5110403;27;19941;-71
2022/12/28 03:16:07;;;;;;;;;;;17.20;45.00;;;;;;5126615;27;1881347;-63
2022/12/28 03:32:26;;;;;;;;;;;16.90;45.90;;;;;;5174139;27;19959;-72
2022/12/28 03:34:51;;;;;;;;;;;16.90;46.00;;;;;;5174061;27;19919;-64
2022/12/28 03:37:30;;;;;;;;;;;16.80;46.00;;;;;;5173802;27;19918;-64
2022/12/28 03:40:16;;;;;;;;;;;16.80;46.20;;;;;;5174311;27;19971;-64
2022/12/28 03:45:32;;;;;;;;;;;16.70;46.40;;;;;;5192454;27;19919;-72
2022/12/28 03:48:00;;;;;;;;;;;16.70;46.60;;;;;;5174234;27;19915;-64
2022/12/28 03:50:27;;;;;;;;;;;16.70;46.60;;;;;;5173750;27;20358;-63
2022/12/28 03:52:52;;;;;;;;;;;16.60;46.70;;;;;;5173636;27;19915;-63
2022/12/28 03:55:18;;;;;;;;;;;16.60;46.80;;;;;;5173692;27;19922;-64
2022/12/28 03:57:43;;;;;;;;;;;16.60;46.80;;;;;;5173793;27;19921;-71
2022/12/28 04:00:09;;;;;;;;;;;16.50;46.90;;;;;;5192570;27;20437;-72
2022/12/28 04:02:35;;;;;;;;;;;16.50;47.00;;;;;;5173872;27;19915;-64
2022/12/28 04:05:01;;;;;;;;;;;16.50;47.10;;;;;;5173810;27;20277;-71
2022/12/28 04:07:27;;;;;;;;;;;16.50;47.10;;;;;;5192367;27;19926;-71
2022/12/28 04:09:52;;;;;;;;;;;16.50;47.20;;;;;;5173463;27;19922;-71
2022/12/28 04:12:18;;;;;;;;;;;16.40;47.20;;;;;;5192354;27;19915;-72
2022/12/28 04:14:43;;;;;;;;;;;16.40;47.30;;;;;;5191767;27;20374;-64
2022/12/28 04:17:09;;;;;;;;;;;16.40;47.40;;;;;;5173382;27;20286;-65
2022/12/28 04:19:34;;;;;;;;;;;16.40;47.50;;;;;;5192063;27;20280;-64
2022/12/28 04:22:00;;;;;;;;;;;16.40;47.60;;;;;;5173295;27;19968;-72
2022/12/28 04:24:25;;;;;;;;;;;16.30;47.60;;;;;;5173197;27;19919;-64
2022/12/28 04:26:51;;;;;;;;;;;16.30;47.70;;;;;;5162868;27;20267;-64
2022/12/28 04:29:16;;;;;;;;;;;16.40;47.90;;;;;;5177946;27;20525;-71
2022/12/28 04:31:42;;;;;;;;;;;16.30;47.90;;;;;;5177722;27;20365;-72
2022/12/28 04:34:08;;;;;;;;;;;16.30;48.00;;;;;;5177672;27;19923;-72
2022/12/28 04:36:33;;;;;;;;;;;16.20;48.00;;;;;;5177678;27;19923;-72
2022/12/28 04:38:59;;;;;;;;;;;16.20;48.10;;;;;;5159250;27;20290;-72
2022/12/28 04:41:24;;;;;;;;;;;16.20;48.20;;;;;;5158981;27;19919;-72
2022/12/28 04:43:50;;;;;;;;;;;16.10;48.20;;;;;;5159122;27;19999;-64
2022/12/28 04:46:16;;;;;;;;;;;16.10;48.30;;;;;;5177534;27;19918;-71
2022/12/28 04:48:42;;;;;;;;;;;16.00;48.40;;;;;;5177454;27;20412;-72
2022/12/28 04:51:10;;;;;;;;;;;16.00;48.50;;;;;;5159002;27;19918;-63
2022/12/28 04:53:37;;;;;;;;;;;16.00;48.60;;;;;;5158962;27;19919;-72
2022/12/28 04:56:03;;;;;;;;;;;15.90;48.70;;;;;;5158569;27;20378;-63
2022/12/28 04:58:29;;;;;;;;;;;15.90;48.80;;;;;;5158865;27;19922;-64
2022/12/28 05:01:00;;;;;;;;;;;15.90;49.00;;;;;;5177196;27;20281;-63
2022/12/28 05:03:26;;;;;;;;;;;15.90;49.10;;;;;;5177080;27;19926;-64
2022/12/28 05:05:51;;;;;;;;;;;15.80;49.20;;;;;;5158498;27;20358;-63
2022/12/28 05:08:17;;;;;;;;;;;15.80;49.30;;;;;;5158484;27;19926;-64
2022/12/28 05:10:42;;;;;;;;;;;15.80;49.40;;;;;;5177046;27;19919;-64
2022/12/28 05:13:08;;;;;;;;;;;15.80;49.40;;;;;;5177016;27;19962;-71
2022/12/28 05:15:33;;;;;;;;;;;15.80;49.40;;;;;;5176575;27;20005;-70
2022/12/28 05:17:59;;;;;;;;;;;15.80;49.50;;;;;;5158431;27;19923;-72
2022/12/28 05:20:24;;;;;;;;;;;15.80;49.50;;;;;;5176795;27;19926;-63
2022/12/28 05:22:50;;;;;;;;;;;15.80;49.60;;;;;;5177017;27;19926;-63
2022/12/28 05:25:15;;;;;;;;;;;15.80;49.60;;;;;;5158052;27;19930;-64
2022/12/28 05:27:41;;;;;;;;;;;15.80;49.60;;;;;;5176829;27;19942;-64
2022/12/28 05:30:07;;;;;;;;;;;15.80;49.70;;;;;;5158270;27;19919;-64
2022/12/28 05:32:32;;;;;;;;;;;15.80;49.70;;;;;;5176610;27;20245;-72
2022/12/28 05:34:58;;;;;;;;;;;15.80;49.70;;;;;;5157869;27;19923;-72
2022/12/28 05:37:23;;;;;;;;;;;15.80;49.70;;;;;;5157020;27;19919;-64
2022/12/28 05:39:49;;;;;;;;;;;15.80;49.70;;;;;;5157521;27;19929;-64
2022/12/28 05:42:14;;;;;;;;;;;15.80;49.60;;;;;;5176543;27;19922;-64
2022/12/28 05:44:40;;;;;;;;;;;15.80;49.60;;;;;;5176423;27;20033;-72
2022/12/28 05:47:05;;;;;;;;;;;15.80;49.60;;;;;;5176293;27;20363;-64
2022/12/28 05:49:31;;;;;;;;;;;15.80;49.60;;;;;;5176295;27;19930;-69
2022/12/28 05:51:56;;;;;;;;;;;15.80;49.60;;;;;;5157788;27;19970;-64
2022/12/28 05:54:22;;;;;;;;;;;15.80;49.60;;;;;;5157450;27;19982;-72
2022/12/28 05:56:49;;;;;;;;;;;15.80;49.70;;;;;;5157426;27;19920;-64
2022/12/28 05:59:14;;;;;;;;;;;15.80;49.60;;;;;;5176077;27;20035;-72
2022/12/28 06:01:42;;;;;;;;;;;15.80;49.70;;;;;;5157264;27;20013;-72
2022/12/28 06:04:13;;;;;;;;;;;15.80;49.70;;;;;;5157638;27;19918;-64
2022/12/28 06:06:38;;;;;;;;;;;15.80;49.70;;;;;;5139937;27;20381;-64
2022/12/28 06:09:04;;;;;;;;;;;15.80;49.80;;;;;;5157498;27;19923;-71
2022/12/28 06:11:29;;;;;;;;;;;15.80;49.80;;;;;;5157147;27;19923;-72
2022/12/28 06:13:56;;;;;;;;;;;15.80;49.80;;;;;;5153273;27;19967;-63
2022/12/28 06:16:23;;;;;;;;;;;15.80;49.90;;;;;;5135918;27;19923;-64
2022/12/28 06:18:50;;;;;;;;;;;15.80;50.00;;;;;;5136095;27;19930;-64
2022/12/28 06:21:17;;;;;;;;;;;15.80;50.70;;;;;;5154082;27;19920;-64
2022/12/28 06:23:43;;;;;;;;;;;15.70;49.90;;;;;;5136045;27;19919;-63
2022/12/28 06:26:10;;;;;;;;;;;15.70;50.00;;;;;;5154673;27;19933;-72
2022/12/28 06:28:36;;;;;;;;;;;15.70;50.00;;;;;;5136469;27;19919;-72
2022/12/28 06:31:03;;;;;;;;;;;15.70;50.10;;;;;;5136072;27;19919;-64
2022/12/28 06:33:29;;;;;;;;;;;15.70;50.10;;;;;;5136232;27;20039;-64
2022/12/28 06:35:54;;;;;;;;;;;15.70;50.20;;;;;;5135927;27;19926;-72
2022/12/28 06:38:20;;;;;;;;;;;15.70;50.20;;;;;;5136194;27;20325;-64
2022/12/28 06:40:45;;;;;;;;;;;15.70;50.30;;;;;;5136263;27;19919;-64
2022/12/28 06:43:11;;;;;;;;;;;15.70;50.30;;;;;;5136143;27;19919;-64
2022/12/28 06:45:36;;;;;;;;;;;15.70;50.40;;;;;;5135823;27;19919;-64
2022/12/28 06:48:02;;;;;;;;;;;15.70;50.30;;;;;;5135982;27;19919;-63
2022/12/28 06:50:27;;;;;;;;;;;15.70;50.40;;;;;;5154088;27;19921;-64
2022/12/28 06:52:53;;;;;;;;;;;15.70;50.40;;;;;;5136020;27;20312;-64
2022/12/28 06:55:18;;;;;;;;;;;15.70;50.40;;;;;;5135688;27;19929;-64
2022/12/28 06:57:44;;;;;;;;;;;15.70;50.40;;;;;;5135891;27;19922;-72
2022/12/28 07:00:10;;;;;;;;;;;15.70;50.50;;;;;;5154094;27;20396;-72
2022/12/28 07:02:35;;;;;;;;;;;16.00;50.50;;;;;;5135581;27;19988;-71
2022/12/28 07:05:01;;;;;;;;;;;16.40;49.80;;;;;;5135841;27;19950;-63
2022/12/28 07:07:26;;;;;;;;;;;16.60;49.10;;;;;;5135887;27;20435;-63
2022/12/28 07:09:52;;;;;;;;;;;17.10;48.40;;;;;;5154099;27;20397;-64
2022/12/28 07:12:17;;;;;;;;;;;17.70;47.40;;;;;;5154094;27;19961;-63
2022/12/28 07:14:43;;;;;;;;;;;18.20;46.20;;;;;;5153701;27;19923;-64
2022/12/28 07:17:08;;;;;;;;;;;18.80;45.10;;;;;;5135686;27;19923;-64
2022/12/28 07:19:34;;;;;;;;;;;19.50;43.90;;;;;;5135547;27;20374;-72
2022/12/28 07:21:59;;;;;;;;;;;20.20;42.70;;;;;;5135733;27;19923;-64
2022/12/28 07:24:25;;;;;;;;;;;20.90;41.50;;;;;;5135605;27;20401;-63
2022/12/28 07:26:50;;;;;;;;;;;21.60;40.40;;;;;;5135043;27;19923;-71
2022/12/28 07:29:16;;;;;;;;;;;22.20;39.20;;;;;;5135418;27;20396;-64
2022/12/28 07:31:41;;;;;;;;;;;22.80;38.40;;;;;;5153870;27;20052;-64
2022/12/28 07:34:07;;;;;;;;;;;23.20;37.70;;;;;;5153757;27;19922;-64
2022/12/28 07:36:33;;;;;;;;;;;23.60;37.00;;;;;;5153794;27;19919;-64
2022/12/28 07:38:58;;;;;;;;;;;24.00;36.50;;;;;;5153743;27;19919;-64
2022/12/28 07:41:26;;;;;;;;;;;24.30;36.00;;;;;;5135674;27;19942;-63
2022/12/28 07:43:52;;;;;;;;;;;24.50;35.60;;;;;;5153839;27;19919;-72
2022/12/28 07:46:19;;;;;;;;;;;24.60;35.40;;;;;;5135194;27;19940;-64
2022/12/28 07:48:44;;;;;;;;;;;24.70;35.30;;;;;;5153671;27;19923;-71
2022/12/28 07:51:12;;;;;;;;;;;24.60;35.30;;;;;;5135329;27;19968;-64
2022/12/28 07:53:39;;;;;;;;;;;24.60;35.50;;;;;;5135450;27;19927;-67
2022/12/28 07:56:05;;;;;;;;;;;24.40;35.50;;;;;;5135018;27;19930;-64
2022/12/28 07:58:30;;;;;;;;;;;24.30;35.70;;;;;;5135118;27;19926;-71
2022/12/28 08:03:43;;;;;;;;;;;23.90;36.10;;;;;;5089907;28;19917;-65
2022/12/28 08:08:51;;;;;;;;;;;23.50;36.80;;;;;;5110342;27;19919;-64
2022/12/28 08:11:18;;;;;;;;;;;23.30;37.00;;;;;;5109219;28;19920;-64
2022/12/28 08:13:44;;;;;;;;;;;23.10;37.30;;;;;;5108965;28;19920;-64
2022/12/28 08:16:11;;;;;;;;;;;22.90;37.60;;;;;;5109124;28;19970;-64
2022/12/28 08:18:36;;;;;;;;;;;22.70;37.90;;;;;;5107581;28;19931;-64
2022/12/28 08:21:03;;;;;;;;;;;22.40;38.20;;;;;;5108924;28;19920;-64
2022/12/28 08:23:29;;;;;;;;;;;22.20;38.50;;;;;;5108420;28;19965;-64
2022/12/28 08:25:55;;;;;;;;;;;21.90;38.90;;;;;;5108317;28;20011;-64
2022/12/28 08:28:20;;;;;;;;;;;21.70;39.20;;;;;;5108601;28;20030;-72
2022/12/28 08:30:46;;;;;;;;;;;21.50;39.50;;;;;;5110056;28;19967;-64
2022/12/28 08:33:11;;;;;;;;;;;21.30;39.80;;;;;;5108497;28;20429;-72
2022/12/28 08:35:37;;;;;;;;;;;21.10;40.20;;;;;;5109921;28;20375;-64
2022/12/28 08:38:03;;;;;;;;;;;21.00;40.50;;;;;;5108571;28;20473;-65
2022/12/28 08:40:29;;;;;;;;;;;20.80;40.70;;;;;;5108438;28;19984;-64
2022/12/28 08:42:58;;;;;;;;;;;20.60;40.90;;;;;;5109562;28;19927;-73
2022/12/28 08:45:23;;;;;;;;;;;20.50;41.20;;;;;;5109286;28;20368;-72
2022/12/28 08:47:49;;;;;;;;;;;20.40;41.50;;;;;;5108309;28;20035;-64
2022/12/28 08:50:14;;;;;;;;;;;20.20;41.70;;;;;;5109461;28;20018;-64
2022/12/28 08:52:40;;;;;;;;;;;20.20;41.90;;;;;;5107957;28;19949;-69
2022/12/28 08:55:06;;;;;;;;;;;20.10;42.10;;;;;;5108408;28;19934;-72
2022/12/28 08:57:32;;;;;;;;;;;20.00;42.30;;;;;;5107842;28;20427;-64
2022/12/28 08:59:57;;;;;;;;;;;19.90;42.40;;;;;;5107996;28;20444;-72
2022/12/28 09:02:23;;;;;;;;;;;19.80;42.60;;;;;;5107831;28;19920;-72
2022/12/28 09:04:48;;;;;;;;;;;19.70;42.70;;;;;;5109586;28;19924;-64
2022/12/28 09:07:14;;;;;;;;;;;19.70;42.90;;;;;;5106589;28;19927;-64
2022/12/28 09:09:39;;;;;;;;;;;19.70;43.00;;;;;;5108819;28;19920;-64
2022/12/28 09:12:06;;;;;;;;;;;19.60;43.10;;;;;;5108988;28;19920;-71
2022/12/28 09:14:32;;;;;;;;;;;19.60;43.30;;;;;;5108887;28;19927;-64
2022/12/28 09:16:57;;;;;;;;;;;19.50;43.40;;;;;;5107794;28;19920;-72
2022/12/28 09:19:23;;;;;;;;;;;19.40;43.50;;;;;;5097952;28;19920;-64
2022/12/28 09:21:51;;;;;;;;;;;19.40;43.60;;;;;;5095552;28;19965;-64
2022/12/28 09:24:16;;;;;;;;;;;19.30;43.70;;;;;;5094149;28;20387;-64
2022/12/28 09:26:42;;;;;;;;;;;19.20;43.80;;;;;;5093734;28;20024;-64
2022/12/28 09:29:10;;;;;;;;;;;19.10;43.90;;;;;;5095155;28;19920;-72
2022/12/28 09:31:36;;;;;;;;;;;19.00;44.10;;;;;;5093564;28;19980;-71
2022/12/28 09:34:02;;;;;;;;;;;18.90;44.30;;;;;;5096576;28;19999;-64
2022/12/28 09:36:30;;;;;;;;;;;18.80;44.50;;;;;;5096540;28;20282;-64
2022/12/28 09:38:57;;;;;;;;;;;18.70;44.80;;;;;;5096294;28;19920;-72
2022/12/28 09:46:55;;;;;;;;;;;18.30;45.50;;;;;;5110051;27;19912;-64
2022/12/28 09:49:23;;;;;;;;;;;18.20;45.80;;;;;;5108235;28;19923;-72
2022/12/28 09:51:53;;;;;;;;;;;18.10;46.10;;;;;;5109152;28;19916;-70
2022/12/28 09:54:19;;;;;;;;;;;18.00;46.30;;;;;;5108945;28;20352;-64
2022/12/28 09:56:46;;;;;;;;;;;17.90;46.50;;;;;;5108893;28;19966;-64
2022/12/28 09:59:14;;;;;;;;;;;17.80;46.70;;;;;;5109508;28;19920;-64
2022/12/28 10:01:41;;;;;;;;;;;17.70;46.90;;;;;;5108737;28;19920;-63
2022/12/28 10:04:09;;;;;;;;;;;17.70;47.10;;;;;;5109444;28;19920;-64
2022/12/28 10:06:35;;;;;;;;;;;17.60;47.30;;;;;;5109646;28;20298;-64
2022/12/28 10:09:03;;;;;;;;;;;17.50;47.40;;;;;;5108759;28;20010;-64
2022/12/28 10:11:32;;;;;;;;;;;17.50;47.60;;;;;;5109772;28;19965;-71
2022/12/28 10:13:59;;;;;;;;;;;17.40;47.70;;;;;;5108420;28;19920;-64
2022/12/28 10:16:26;;;;;;;;;;;17.40;47.90;;;;;;5109704;28;19920;-72
2022/12/28 10:18:52;;;;;;;;;;;17.40;48.00;;;;;;5109492;28;19920;-72
2022/12/28 10:21:19;;;;;;;;;;;17.30;48.10;;;;;;5108690;28;20256;-64
2022/12/28 10:23:46;;;;;;;;;;;17.30;48.30;;;;;;5108650;28;19965;-64
2022/12/28 10:26:15;;;;;;;;;;;17.20;49.10;;;;;;5108151;28;19930;-64
2022/12/28 10:28:44;;;;;;;;;;;17.20;48.50;;;;;;5108250;28;19977;-64
2022/12/28 10:31:10;;;;;;;;;;;17.20;48.60;;;;;;5109398;28;19920;-64
2022/12/28 10:33:37;;;;;;;;;;;17.20;48.70;;;;;;5109444;28;19923;-64
2022/12/28 10:36:03;;;;;;;;;;;17.10;48.80;;;;;;5109478;28;19971;-63
2022/12/28 10:38:30;;;;;;;;;;;17.00;48.90;;;;;;5108033;28;19959;-64
2022/12/28 10:41:11;;;;;;;;;;;17.00;49.00;;;;;;5109282;28;20007;-64
2022/12/28 10:43:39;;;;;;;;;;;17.00;49.20;;;;;;5109441;28;19931;-64
2022/12/28 10:46:11;;;;;;;;;;;17.00;49.30;;;;;;5123077;28;19928;-71
2022/12/28 10:48:37;;;;;;;;;;;16.90;49.40;;;;;;5111507;28;19932;-72
2022/12/28 10:53:45;;;;;;;;;;;16.90;49.70;;;;;;5127321;27;1872435;-72
2022/12/28 10:58:53;;;;;;;;;;;16.80;49.90;;;;;;5109890;27;19941;-71
2022/12/28 11:01:24;;;;;;;;;;;16.80;50.00;;;;;;5092194;28;20283;-64
2022/12/28 11:03:58;;;;;;;;;;;16.70;50.10;;;;;;5092001;28;20402;-72
2022/12/28 11:06:25;;;;;;;;;;;16.70;50.20;;;;;;5092084;28;19998;-71
2022/12/28 11:09:11;;;;;;;;;;;16.70;50.30;;;;;;5108803;28;19927;-71
2022/12/28 11:11:36;;;;;;;;;;;16.60;50.40;;;;;;5091894;28;19919;-63
2022/12/28 11:14:05;;;;;;;;;;;16.60;50.50;;;;;;5092062;28;20398;-65
2022/12/28 11:16:33;;;;;;;;;;;16.60;50.60;;;;;;5108525;28;19920;-64
2022/12/28 11:18:59;;;;;;;;;;;16.60;50.70;;;;;;5110308;28;19965;-72
2022/12/28 11:21:24;;;;;;;;;;;16.60;50.80;;;;;;5091552;28;20325;-72
2022/12/28 11:23:50;;;;;;;;;;;16.50;50.80;;;;;;5091820;28;19920;-63
2022/12/28 11:26:16;;;;;;;;;;;16.50;50.90;;;;;;5091140;28;19927;-72
2022/12/28 11:28:44;;;;;;;;;;;16.50;51.00;;;;;;5091290;28;19920;-72
2022/12/28 11:31:16;;;;;;;;;;;16.50;51.10;;;;;;5109661;28;19969;-64
2022/12/28 11:33:43;;;;;;;;;;;16.50;51.20;;;;;;5091637;28;19927;-72
2022/12/28 11:36:13;;;;;;;;;;;16.50;51.20;;;;;;5109830;28;19927;-64
2022/12/28 11:38:40;;;;;;;;;;;16.50;51.30;;;;;;5091257;28;19947;-64
2022/12/28 11:41:08;;;;;;;;;;;16.40;51.30;;;;;;5091309;28;20033;-64
2022/12/28 11:51:43;;;;;;;;;;;16.40;51.50;;;;;;5127351;27;1870266;-64
2022/12/28 11:54:28;;;;;;;;;;;16.40;51.60;;;;;;5174759;27;19918;-64
2022/12/28 11:59:34;;;;;;;;;;;16.30;51.70;;;;;;5089983;28;20314;-64
2022/12/28 12:04:42;;;;;;;;;;;16.30;51.90;;;;;;5110368;27;20286;-64
2022/12/28 12:07:16;;;;;;;;;;;16.30;51.90;;;;;;5108912;28;19920;-64
2022/12/28 12:09:44;;;;;;;;;;;16.30;52.00;;;;;;5109249;28;19928;-72
2022/12/28 12:15:01;;;;;;;;;;;16.20;52.20;;;;;;5089971;28;19918;-64
2022/12/28 12:17:32;;;;;;;;;;;16.20;52.30;;;;;;5088558;28;19920;-63
2022/12/28 12:20:00;;;;;;;;;;;16.10;52.40;;;;;;5089846;28;19954;-72
2022/12/28 12:22:31;;;;;;;;;;;16.10;52.50;;;;;;5088870;28;20466;-64
2022/12/28 12:25:17;;;;;;;;;;;16.10;52.60;;;;;;5088711;28;19929;-71
2022/12/28 12:27:45;;;;;;;;;;;16.10;52.60;;;;;;5088190;28;20372;-64
2022/12/28 12:32:54;;;;;;;;;;;16.00;52.70;;;;;;5127495;27;1867641;-64
2022/12/28 12:35:21;;;;;;;;;;;16.00;52.90;;;;;;5174745;27;20290;-63
2022/12/28 12:38:06;;;;;;;;;;;16.00;52.90;;;;;;5174391;27;20017;-63
2022/12/28 12:40:51;;;;;;;;;;;16.00;53.00;;;;;;5174444;27;19926;-64
2022/12/28 12:51:33;;;;;;;;;;;16.00;53.10;;;;;;5089276;28;19918;-64
2022/12/28 12:56:43;;;;;;;;;;;16.00;53.20;;;;;;5127361;27;1873055;-64
2022/12/28 13:04:28;;;;;;;;;;;16.00;53.20;;;;;;5126630;27;1890469;-63
2022/12/28 13:06:56;;;;;;;;;;;16.00;53.20;;;;;;5155998;27;19923;-71
2022/12/28 13:09:23;;;;;;;;;;;16.00;53.20;;;;;;5153390;27;19918;-64
2022/12/28 13:11:49;;;;;;;;;;;16.00;53.20;;;;;;5153545;27;19919;-70
2022/12/28 13:14:18;;;;;;;;;;;16.00;53.30;;;;;;5153747;27;19995;-64
2022/12/28 13:16:52;;;;;;;;;;;16.00;53.30;;;;;;5153331;27;19919;-63
2022/12/28 13:19:19;;;;;;;;;;;16.00;53.30;;;;;;5153311;27;19919;-64
2022/12/28 13:21:47;;;;;;;;;;;16.00;53.30;;;;;;5172095;27;19942;-64
2022/12/28 13:24:30;;;;;;;;;;;16.00;53.30;;;;;;5171976;27;20461;-72
2022/12/28 13:26:57;;;;;;;;;;;16.00;53.30;;;;;;5153531;27;19919;-71
2022/12/28 13:29:24;;;;;;;;;;;16.00;53.30;;;;;;5153481;27;19919;-72
2022/12/28 13:31:50;;;;;;;;;;;16.00;53.30;;;;;;5171741;27;19934;-63
2022/12/28 13:36:57;;;;;;;;;;;16.00;53.40;;;;;;5089871;28;20311;-71
2022/12/28 13:39:24;;;;;;;;;;;16.00;53.40;;;;;;5088905;28;20326;-72
2022/12/28 13:41:53;;;;;;;;;;;16.00;53.40;;;;;;5088473;28;19920;-63
2022/12/28 13:47:23;;;;;;;;;;;16.00;53.40;;;;;;5127318;27;1870656;-71
2022/12/28 13:50:06;;;;;;;;;;;16.00;53.50;;;;;;5174209;27;20331;-72
2022/12/28 13:52:34;;;;;;;;;;;15.90;53.40;;;;;;5174351;27;19926;-64
2022/12/28 13:55:05;;;;;;;;;;;15.90;53.40;;;;;;5193164;27;19965;-64
2022/12/28 13:57:32;;;;;;;;;;;15.90;53.40;;;;;;5174551;27;20410;-64
2022/12/28 13:59:57;;;;;;;;;;;15.90;53.40;;;;;;5174529;27;19929;-63
2022/12/28 14:02:23;;;;;;;;;;;15.90;53.50;;;;;;5174227;27;20285;-64
2022/12/28 14:04:50;;;;;;;;;;;15.90;53.50;;;;;;5174042;27;19954;-64
2022/12/28 14:07:17;;;;;;;;;;;15.90;53.50;;;;;;5193151;27;19949;-64
2022/12/28 14:09:42;;;;;;;;;;;15.90;53.50;;;;;;5193098;27;19922;-64
2022/12/28 14:12:08;;;;;;;;;;;15.90;53.50;;;;;;5192898;27;20322;-64
2022/12/28 14:14:34;;;;;;;;;;;15.90;53.50;;;;;;5174306;27;20385;-64
2022/12/28 14:17:01;;;;;;;;;;;15.90;53.50;;;;;;5174096;27;19918;-64
2022/12/28 14:19:27;;;;;;;;;;;15.90;53.50;;;;;;5192620;27;19922;-64
2022/12/28 14:21:52;;;;;;;;;;;15.90;53.50;;;;;;5173868;27;19915;-72
2022/12/28 14:24:18;;;;;;;;;;;15.90;53.50;;;;;;5174118;27;20270;-71
2022/12/28 14:26:47;;;;;;;;;;;15.90;53.50;;;;;;5192293;27;20405;-72
2022/12/28 14:29:17;;;;;;;;;;;15.90;53.50;;;;;;5166134;27;19919;-71
2022/12/28 14:31:43;;;;;;;;;;;15.90;53.50;;;;;;5151587;27;19919;-64
2022/12/28 14:34:19;;;;;;;;;;;15.90;53.50;;;;;;5152270;27;19919;-64
2022/12/28 14:36:49;;;;;;;;;;;15.90;53.50;;;;;;5152883;27;19969;-64
2022/12/28 14:39:23;;;;;;;;;;;15.80;53.50;;;;;;5152346;27;19919;-71
2022/12/28 14:41:49;;;;;;;;;;;15.80;53.50;;;;;;5152707;27;19919;-71
2022/12/28 14:44:16;;;;;;;;;;;15.90;53.60;;;;;;5171059;27;20370;-64
2022/12/28 14:46:42;;;;;;;;;;;15.80;53.50;;;;;;5170715;27;19923;-66
2022/12/28 14:57:32;;;;;;;;;;;15.80;53.50;;;;;;5110555;27;19912;-64
2022/12/28 15:00:18;;;;;;;;;;;15.80;53.50;;;;;;5108814;28;19931;-64
2022/12/28 15:02:43;;;;;;;;;;;15.80;53.60;;;;;;5108819;28;19920;-72
2022/12/28 15:05:29;;;;;;;;;;;15.80;53.60;;;;;;5109060;28;20329;-65
2022/12/28 15:07:54;;;;;;;;;;;15.80;53.70;;;;;;5108309;28;19920;-71
2022/12/28 15:10:20;;;;;;;;;;;15.80;53.60;;;;;;5108041;28;19920;-70
2022/12/28 15:12:45;;;;;;;;;;;15.80;53.60;;;;;;5106665;28;19959;-64
2022/12/28 15:15:11;;;;;;;;;;;15.80;53.70;;;;;;5105983;28;20015;-64
2022/12/28 15:17:36;;;;;;;;;;;15.80;54.00;;;;;;5106625;28;19920;-64
2022/12/28 15:20:02;;;;;;;;;;;15.80;54.30;;;;;;5107264;28;19919;-64
2022/12/28 15:22:27;;;;;;;;;;;15.80;54.80;;;;;;5108639;28;19927;-66
2022/12/28 15:24:53;;;;;;;;;;;15.80;55.20;;;;;;5107896;28;19920;-70
2022/12/28 15:27:18;;;;;;;;;;;15.80;55.40;;;;;;5108007;28;20311;-64
2022/12/28 15:29:44;;;;;;;;;;;15.80;55.50;;;;;;5108273;28;19927;-64
2022/12/28 15:32:09;;;;;;;;;;;15.70;55.50;;;;;;5109627;28;19927;-64
2022/12/28 15:34:35;;;;;;;;;;;15.70;55.50;;;;;;5108072;28;19927;-64
2022/12/28 15:37:00;;;;;;;;;;;15.70;55.40;;;;;;5108315;28;20037;-64
2022/12/28 15:39:26;;;;;;;;;;;15.70;55.30;;;;;;5107868;28;20287;-71
2022/12/28 15:41:51;;;;;;;;;;;15.70;55.30;;;;;;5108991;28;20488;-72
2022/12/28 15:44:18;;;;;;;;;;;15.70;55.20;;;;;;5109291;28;19961;-64
2022/12/28 15:46:45;;;;;;;;;;;15.70;55.20;;;;;;5108339;28;20003;-64
2022/12/28 15:49:11;;;;;;;;;;;15.70;55.80;;;;;;5108170;28;20322;-64
2022/12/28 15:51:37;;;;;;;;;;;15.70;55.00;;;;;;5108136;28;20284;-65
2022/12/28 15:54:03;;;;;;;;;;;15.70;54.90;;;;;;5108856;28;19920;-70
2022/12/28 15:56:30;;;;;;;;;;;15.70;54.90;;;;;;5107570;28;19928;-71
2022/12/28 15:58:56;;;;;;;;;;;15.70;54.90;;;;;;5107502;28;19920;-65
2022/12/28 16:01:22;;;;;;;;;;;15.70;54.80;;;;;;5107946;28;20007;-64
2022/12/28 16:03:49;;;;;;;;;;;15.70;55.60;;;;;;5107793;28;20054;-64
2022/12/28 16:06:14;;;;;;;;;;;15.70;54.80;;;;;;5108911;28;19920;-65
2022/12/28 16:08:40;;;;;;;;;;;15.70;54.80;;;;;;5094398;28;19926;-65
2022/12/28 16:11:07;;;;;;;;;;;15.70;54.80;;;;;;5095144;28;19920;-71